createdAt,value
2022-08-25T00:00:56.294Z,14.95
2022-08-25T00:01:56.259Z,14.96
2022-08-25T00:02:56.766Z,14.96
2022-08-25T00:03:56.233Z,14.95
2022-08-25T00:04:56.250Z,15.02
2022-08-25T00:05:56.323Z,14.91
2022-08-25T00:07:00.688Z,14.95
2022-08-25T00:07:57.275Z,14.91
2022-08-25T00:08:56.194Z,14.95
2022-08-25T00:09:56.167Z,14.88
2022-08-25T00:11:03.533Z,14.94
2022-08-25T00:11:57.163Z,14.78
2022-08-25T00:12:56.140Z,14.81
2022-08-25T00:13:56.119Z,14.77
2022-08-25T00:14:56.110Z,14.81
2022-08-25T00:15:56.135Z,14.78
2022-08-25T00:16:56.333Z,14.83
2022-08-25T00:17:56.076Z,14.83
2022-08-25T00:18:56.067Z,14.75
2022-08-25T00:19:56.048Z,14.72
2022-08-25T00:20:56.045Z,14.75
2022-08-25T00:21:56.058Z,14.68
2022-08-25T00:22:56.076Z,14.69
2022-08-25T00:23:56.007Z,14.70
2022-08-25T00:24:55.995Z,14.75
2022-08-25T00:25:55.988Z,14.73
2022-08-25T00:26:55.983Z,14.69
2022-08-25T00:27:55.982Z,14.65
2022-08-25T00:29:01.665Z,14.61
2022-08-25T00:29:56.935Z,14.57
2022-08-25T00:30:56.008Z,14.57
2022-08-25T00:31:55.921Z,14.64
2022-08-25T00:32:57.545Z,14.61
2022-08-25T00:33:55.889Z,14.58
2022-08-25T00:34:55.917Z,14.60
2022-08-25T00:35:55.947Z,14.57
2022-08-25T00:36:55.860Z,14.55
2022-08-25T00:37:55.871Z,14.58
2022-08-25T00:38:55.860Z,14.55
2022-08-25T00:39:55.868Z,14.62
2022-08-25T00:40:55.881Z,14.54
2022-08-25T00:41:55.809Z,14.57
2022-08-25T00:42:55.790Z,14.52
2022-08-25T00:43:55.807Z,14.55
2022-08-25T00:44:56.441Z,14.37
2022-08-25T00:45:55.814Z,14.40
2022-08-25T00:46:55.746Z,14.39
2022-08-25T00:47:56.728Z,14.42
2022-08-25T00:48:55.743Z,14.42
2022-08-25T00:49:55.730Z,14.39
2022-08-25T00:50:55.696Z,14.40
2022-08-25T00:51:55.727Z,14.46
2022-08-25T00:52:55.678Z,14.45
2022-08-25T00:53:55.664Z,14.40
2022-08-25T00:54:55.675Z,14.35
2022-08-25T00:55:55.649Z,14.27
2022-08-25T00:56:55.645Z,14.33
2022-08-25T00:57:55.619Z,14.36
2022-08-25T00:58:55.671Z,14.25
2022-08-25T00:59:55.618Z,14.25
2022-08-25T01:00:55.610Z,14.32
2022-08-25T01:01:55.616Z,14.29
2022-08-25T01:02:55.685Z,14.37
2022-08-25T01:03:55.547Z,14.24
2022-08-25T01:04:55.563Z,14.17
2022-08-25T01:05:55.551Z,14.22
2022-08-25T01:06:55.517Z,14.24
2022-08-25T01:07:57.530Z,14.24
2022-08-25T01:08:55.493Z,14.24
2022-08-25T01:09:55.482Z,14.36
2022-08-25T01:10:55.558Z,14.20
2022-08-25T01:11:55.482Z,14.25
2022-08-25T01:12:55.451Z,14.18
2022-08-25T01:13:55.436Z,14.21
2022-08-25T01:14:55.436Z,14.22
2022-08-25T01:15:55.470Z,14.27
2022-08-25T01:16:55.456Z,14.14
2022-08-25T01:17:55.412Z,14.27
2022-08-25T01:18:55.374Z,14.22
2022-08-25T01:19:55.366Z,14.20
2022-08-25T01:20:55.357Z,14.24
2022-08-25T01:21:55.367Z,14.22
2022-08-25T01:22:55.534Z,14.18
2022-08-25T01:23:55.322Z,14.17
2022-08-25T01:24:55.307Z,14.10
2022-08-25T01:25:55.297Z,14.10
2022-08-25T01:26:55.314Z,14.09
2022-08-25T01:27:55.302Z,14.07
2022-08-25T01:28:55.279Z,14.09
2022-08-25T01:29:55.252Z,14.06
2022-08-25T01:30:55.321Z,14.07
2022-08-25T01:31:55.231Z,14.07
2022-08-25T01:32:55.270Z,14.09
2022-08-25T01:33:55.212Z,14.09
2022-08-25T01:34:55.233Z,13.97
2022-08-25T01:35:55.190Z,14.02
2022-08-25T01:36:55.177Z,14.12
2022-08-25T01:37:55.163Z,14.02
2022-08-25T01:38:55.178Z,14.02
2022-08-25T01:39:55.177Z,14.03
2022-08-25T01:40:55.163Z,14.00
2022-08-25T01:41:55.129Z,13.97
2022-08-25T01:42:55.123Z,13.97
2022-08-25T01:43:55.133Z,13.95
2022-08-25T01:44:55.090Z,13.89
2022-08-25T01:45:55.127Z,13.89
2022-08-25T01:46:55.070Z,13.96
2022-08-25T01:47:55.073Z,13.95
2022-08-25T01:48:55.086Z,13.92
2022-08-25T01:49:55.033Z,13.92
2022-08-25T01:50:55.024Z,13.84
2022-08-25T01:51:55.020Z,13.89
2022-08-25T01:52:55.008Z,13.82
2022-08-25T01:53:55.021Z,13.87
2022-08-25T01:54:55.010Z,13.81
2022-08-25T01:55:54.971Z,13.85
2022-08-25T01:56:54.958Z,13.85
2022-08-25T01:57:54.947Z,13.84
2022-08-25T01:58:54.939Z,13.85
2022-08-25T01:59:54.967Z,13.85
2022-08-25T02:00:54.919Z,13.91
2022-08-25T02:01:59.721Z,13.89
2022-08-25T02:02:55.981Z,13.88
2022-08-25T02:03:54.884Z,13.81
2022-08-25T02:04:54.898Z,13.77
2022-08-25T02:05:54.902Z,13.85
2022-08-25T02:06:54.848Z,13.73
2022-08-25T02:07:54.837Z,13.78
2022-08-25T02:08:54.829Z,13.77
2022-08-25T02:09:55.776Z,13.84
2022-08-25T02:10:54.839Z,13.79
2022-08-25T02:11:54.818Z,13.79
2022-08-25T02:12:54.788Z,13.79
2022-08-25T02:13:54.776Z,13.82
2022-08-25T02:14:54.764Z,13.78
2022-08-25T02:15:54.753Z,13.75
2022-08-25T02:16:54.810Z,13.81
2022-08-25T02:17:54.733Z,13.75
2022-08-25T02:18:54.717Z,13.67
2022-08-25T02:19:54.717Z,13.70
2022-08-25T02:20:54.697Z,13.69
2022-08-25T02:21:54.711Z,13.67
2022-08-25T02:22:57.064Z,13.66
2022-08-25T02:23:54.668Z,13.66
2022-08-25T02:24:54.677Z,13.70
2022-08-25T02:25:54.642Z,13.73
2022-08-25T02:26:54.630Z,13.66
2022-08-25T02:27:54.623Z,13.64
2022-08-25T02:28:54.696Z,13.64
2022-08-25T02:29:54.600Z,13.60
2022-08-25T02:31:01.168Z,13.64
2022-08-25T02:31:55.573Z,13.60
2022-08-25T02:32:54.571Z,13.62
2022-08-25T02:33:54.576Z,13.60
2022-08-25T02:34:54.563Z,13.55
2022-08-25T02:35:54.536Z,13.57
2022-08-25T02:36:54.535Z,13.54
2022-08-25T02:37:54.518Z,13.55
2022-08-25T02:38:54.518Z,13.52
2022-08-25T02:39:54.549Z,13.45
2022-08-25T02:40:54.483Z,13.49
2022-08-25T02:41:54.496Z,13.44
2022-08-25T02:42:54.463Z,13.52
2022-08-25T02:43:54.459Z,13.52
2022-08-25T02:44:54.459Z,13.46
2022-08-25T02:45:54.511Z,13.54
2022-08-25T02:46:54.411Z,13.55
2022-08-25T02:47:54.432Z,13.51
2022-08-25T02:48:54.395Z,13.62
2022-08-25T02:49:54.381Z,13.62
2022-08-25T02:50:54.395Z,13.59
2022-08-25T02:51:54.358Z,13.44
2022-08-25T02:52:54.355Z,13.42
2022-08-25T02:53:54.358Z,13.44
2022-08-25T02:54:54.354Z,13.41
2022-08-25T02:55:54.316Z,13.42
2022-08-25T02:56:54.305Z,13.42
2022-08-25T02:57:54.297Z,13.44
2022-08-25T02:58:54.293Z,13.45
2022-08-25T02:59:54.326Z,13.46
2022-08-25T03:00:54.365Z,13.39
2022-08-25T03:01:54.251Z,13.41
2022-08-25T03:02:54.237Z,13.42
2022-08-25T03:03:54.270Z,13.42
2022-08-25T03:04:55.143Z,13.44
2022-08-25T03:05:54.250Z,13.45
2022-08-25T03:06:54.195Z,13.41
2022-08-25T03:07:54.185Z,13.45
2022-08-25T03:08:54.174Z,13.44
2022-08-25T03:09:54.161Z,13.51
2022-08-25T03:10:54.164Z,13.48
2022-08-25T03:11:54.132Z,13.44
2022-08-25T03:12:54.162Z,13.42
2022-08-25T03:13:54.114Z,13.46
2022-08-25T03:14:54.102Z,13.44
2022-08-25T03:15:54.113Z,13.41
2022-08-25T03:16:54.129Z,13.44
2022-08-25T03:17:54.074Z,13.46
2022-08-25T03:18:54.087Z,13.46
2022-08-25T03:19:54.047Z,13.52
2022-08-25T03:20:54.044Z,13.52
2022-08-25T03:21:54.063Z,13.49
2022-08-25T03:22:54.013Z,13.49
2022-08-25T03:23:54.008Z,13.42
2022-08-25T03:24:54.025Z,13.49
2022-08-25T03:25:53.981Z,13.45
2022-08-25T03:27:03.998Z,13.41
2022-08-25T03:27:54.130Z,13.55
2022-08-25T03:28:54.021Z,13.44
2022-08-25T03:29:54.106Z,13.48
2022-08-25T03:30:56.282Z,13.44
2022-08-25T03:31:53.983Z,13.46
2022-08-25T03:32:53.936Z,13.42
2022-08-25T03:33:53.893Z,13.42
2022-08-25T03:34:53.878Z,13.46
2022-08-25T03:35:53.889Z,13.42
2022-08-25T03:36:53.881Z,13.45
2022-08-25T03:37:53.847Z,13.45
2022-08-25T03:38:53.833Z,13.41
2022-08-25T03:39:53.874Z,13.46
2022-08-25T03:40:53.854Z,13.45
2022-08-25T03:41:53.807Z,13.44
2022-08-25T03:42:53.788Z,13.42
2022-08-25T03:43:53.783Z,13.42
2022-08-25T03:44:53.768Z,13.46
2022-08-25T03:45:53.855Z,13.36
2022-08-25T03:46:53.790Z,13.39
2022-08-25T03:47:53.733Z,13.42
2022-08-25T03:48:53.719Z,13.38
2022-08-25T03:49:53.727Z,13.41
2022-08-25T03:50:53.698Z,13.44
2022-08-25T03:51:53.710Z,13.33
2022-08-25T03:52:53.739Z,13.39
2022-08-25T03:53:53.667Z,13.33
2022-08-25T03:54:53.657Z,13.46
2022-08-25T03:55:53.644Z,13.33
2022-08-25T03:56:53.631Z,13.36
2022-08-25T03:57:53.621Z,13.44
2022-08-25T03:58:53.649Z,13.41
2022-08-25T03:59:53.597Z,13.45
2022-08-25T04:00:53.626Z,13.45
2022-08-25T04:01:55.458Z,13.45
2022-08-25T04:02:53.563Z,13.42
2022-08-25T04:03:53.581Z,13.39
2022-08-25T04:04:53.572Z,13.45
2022-08-25T04:05:53.567Z,13.32
2022-08-25T04:06:53.517Z,13.36
2022-08-25T04:07:53.508Z,13.36
2022-08-25T04:08:53.497Z,13.39
2022-08-25T04:09:53.502Z,13.30
2022-08-25T04:10:53.516Z,13.42
2022-08-25T04:11:53.616Z,13.33
2022-08-25T04:12:53.448Z,13.44
2022-08-25T04:13:53.486Z,13.39
2022-08-25T04:14:53.426Z,13.46
2022-08-25T04:15:53.447Z,13.39
2022-08-25T04:16:54.366Z,13.38
2022-08-25T04:17:53.421Z,13.42
2022-08-25T04:18:53.382Z,13.42
2022-08-25T04:19:53.372Z,13.41
2022-08-25T04:20:53.420Z,13.44
2022-08-25T04:21:57.287Z,13.39
2022-08-25T04:22:53.385Z,13.42
2022-08-25T04:23:53.332Z,13.46
2022-08-25T04:24:53.332Z,13.45
2022-08-25T04:25:53.331Z,13.39
2022-08-25T04:26:53.298Z,13.44
2022-08-25T04:27:53.312Z,13.42
2022-08-25T04:28:53.336Z,13.48
2022-08-25T04:29:53.265Z,13.45
2022-08-25T04:30:53.279Z,13.54
2022-08-25T04:31:53.925Z,13.51
2022-08-25T04:32:53.233Z,13.52
2022-08-25T04:33:53.225Z,13.52
2022-08-25T04:34:53.227Z,13.49
2022-08-25T04:35:53.224Z,13.51
2022-08-25T04:36:53.187Z,13.51
2022-08-25T04:37:53.181Z,13.55
2022-08-25T04:38:53.172Z,13.52
2022-08-25T04:39:53.266Z,13.57
2022-08-25T04:40:53.161Z,13.59
2022-08-25T04:41:53.152Z,13.70
2022-08-25T04:42:53.120Z,13.62
2022-08-25T04:43:53.128Z,13.69
2022-08-25T04:44:53.095Z,13.70
2022-08-25T04:45:53.145Z,13.73
2022-08-25T04:46:53.114Z,13.66
2022-08-25T04:47:55.079Z,13.71
2022-08-25T04:48:53.049Z,13.78
2022-08-25T04:49:53.058Z,13.75
2022-08-25T04:50:53.031Z,13.82
2022-08-25T04:51:53.037Z,13.77
2022-08-25T04:52:53.050Z,13.75
2022-08-25T04:53:53.017Z,13.84
2022-08-25T04:54:52.977Z,13.81
2022-08-25T04:55:52.973Z,13.91
2022-08-25T04:56:54.430Z,13.85
2022-08-25T04:57:53.950Z,13.92
2022-08-25T04:58:52.953Z,13.96
2022-08-25T04:59:52.928Z,13.92
2022-08-25T05:00:52.984Z,13.96
2022-08-25T05:01:52.907Z,13.97
2022-08-25T05:02:52.895Z,14.03
2022-08-25T05:03:52.929Z,14.06
2022-08-25T05:04:52.950Z,14.04
2022-08-25T05:05:52.885Z,14.02
2022-08-25T05:06:52.849Z,14.06
2022-08-25T05:07:52.846Z,14.07
2022-08-25T05:08:52.845Z,14.06
2022-08-25T05:09:52.815Z,14.15
2022-08-25T05:10:52.823Z,14.21
2022-08-25T05:11:52.795Z,14.22
2022-08-25T05:12:52.781Z,14.20
2022-08-25T05:13:52.795Z,14.21
2022-08-25T05:14:52.764Z,14.36
2022-08-25T05:15:52.752Z,14.28
2022-08-25T05:16:52.865Z,14.40
2022-08-25T05:17:55.988Z,14.37
2022-08-25T05:18:52.735Z,14.39
2022-08-25T05:19:52.706Z,14.39
2022-08-25T05:20:52.696Z,14.45
2022-08-25T05:21:52.683Z,14.52
2022-08-25T05:22:52.710Z,14.57
2022-08-25T05:23:52.679Z,14.55
2022-08-25T05:24:52.657Z,14.61
2022-08-25T05:25:52.637Z,14.65
2022-08-25T05:26:52.626Z,14.78
2022-08-25T05:27:52.638Z,14.77
2022-08-25T05:28:52.637Z,14.75
2022-08-25T05:29:52.595Z,14.78
2022-08-25T05:30:52.602Z,14.91
2022-08-25T05:31:52.633Z,14.92
2022-08-25T05:32:52.561Z,14.95
2022-08-25T05:33:52.570Z,14.99
2022-08-25T05:34:52.579Z,14.98
2022-08-25T05:35:52.548Z,15.13
2022-08-25T05:36:52.518Z,15.13
2022-08-25T05:37:52.507Z,15.09
2022-08-25T05:38:52.516Z,15.25
2022-08-25T05:39:52.545Z,15.28
2022-08-25T05:40:52.492Z,15.28
2022-08-25T05:41:52.483Z,15.36
2022-08-25T05:42:52.455Z,15.50
2022-08-25T05:43:52.465Z,15.43
2022-08-25T05:44:52.429Z,15.59
2022-08-25T05:45:52.472Z,15.60
2022-08-25T05:46:52.435Z,15.67
2022-08-25T05:47:52.397Z,15.75
2022-08-25T05:48:52.407Z,15.78
2022-08-25T05:49:52.389Z,15.84
2022-08-25T05:50:52.362Z,15.89
2022-08-25T05:51:52.380Z,15.93
2022-08-25T05:52:52.351Z,15.96
2022-08-25T05:53:52.327Z,16.05
2022-08-25T05:54:52.461Z,15.96
2022-08-25T05:56:42.714Z,16.12
2022-08-25T05:57:42.683Z,16.12
2022-08-25T05:58:42.685Z,16.07
2022-08-25T05:59:42.686Z,16.11
2022-08-25T06:00:42.682Z,16.21
2022-08-25T06:01:43.332Z,16.23
2022-08-25T06:02:42.633Z,16.30
2022-08-25T06:03:42.704Z,16.31
2022-08-25T06:04:42.622Z,16.31
2022-08-25T06:05:42.619Z,16.39
2022-08-25T06:06:42.585Z,16.43
2022-08-25T06:07:42.565Z,16.48
2022-08-25T06:08:42.566Z,16.68
2022-08-25T06:09:42.567Z,16.70
2022-08-25T06:10:42.535Z,16.85
2022-08-25T06:11:42.539Z,16.83
2022-08-25T06:12:42.511Z,17.06
2022-08-25T06:13:42.498Z,17.18
2022-08-25T06:14:42.494Z,17.44
2022-08-25T06:15:42.612Z,17.77
2022-08-25T06:16:42.528Z,18.29
2022-08-25T06:17:42.449Z,18.94
2022-08-25T06:18:42.440Z,19.44
2022-08-25T06:19:42.437Z,20.08
2022-08-25T06:20:42.423Z,20.73
2022-08-25T06:21:42.430Z,21.16
2022-08-25T06:22:42.399Z,21.69
2022-08-25T06:23:42.383Z,22.09
2022-08-25T06:24:42.402Z,22.54
2022-08-25T06:25:42.369Z,22.94
2022-08-25T06:26:42.349Z,23.36
2022-08-25T06:27:42.361Z,23.78
2022-08-25T06:28:42.341Z,24.15
2022-08-25T06:29:42.334Z,24.55
2022-08-25T06:30:42.320Z,24.93
2022-08-25T06:31:42.385Z,25.17
2022-08-25T06:32:42.279Z,25.46
2022-08-25T06:33:42.281Z,25.75
2022-08-25T06:34:42.348Z,25.99
2022-08-25T06:35:42.278Z,26.13
2022-08-25T06:36:42.246Z,26.57
2022-08-25T06:37:42.241Z,26.77
2022-08-25T06:38:42.242Z,27.12
2022-08-25T06:39:42.203Z,27.27
2022-08-25T06:40:42.213Z,27.43
2022-08-25T06:41:42.215Z,27.54
2022-08-25T06:42:42.193Z,27.78
2022-08-25T06:43:47.964Z,27.90
2022-08-25T06:44:43.168Z,27.93
2022-08-25T06:45:42.138Z,28.12
2022-08-25T06:46:42.187Z,28.22
2022-08-25T06:47:42.121Z,28.34
2022-08-25T06:48:42.113Z,28.37
2022-08-25T06:49:42.135Z,28.44
2022-08-25T06:50:42.088Z,28.59
2022-08-25T06:51:42.073Z,28.51
2022-08-25T06:52:42.091Z,28.54
2022-08-25T06:53:42.055Z,28.61
2022-08-25T06:54:42.039Z,28.70
2022-08-25T06:55:42.035Z,28.68
2022-08-25T06:56:42.027Z,28.68
2022-08-25T06:57:42.025Z,28.73
2022-08-25T06:58:42.035Z,28.67
2022-08-25T06:59:42.041Z,28.64
2022-08-25T07:00:42.084Z,28.74
2022-08-25T07:01:42.100Z,28.68
2022-08-25T07:02:42.110Z,28.74
2022-08-25T07:03:41.995Z,28.68
2022-08-25T07:04:41.997Z,28.73
2022-08-25T07:05:43.963Z,28.78
2022-08-25T07:06:41.931Z,28.76
2022-08-25T07:07:43.608Z,28.83
2022-08-25T07:08:41.879Z,28.78
2022-08-25T07:09:41.870Z,28.67
2022-08-25T07:10:41.871Z,28.54
2022-08-25T07:11:42.907Z,28.48
2022-08-25T07:12:41.843Z,28.39
2022-08-25T07:13:41.824Z,28.18
2022-08-25T07:14:44.250Z,28.09
2022-08-25T07:15:42.830Z,28.07
2022-08-25T07:16:45.986Z,28.03
2022-08-25T07:17:42.777Z,27.85
2022-08-25T07:18:41.791Z,27.93
2022-08-25T07:19:41.762Z,27.85
2022-08-25T07:20:41.827Z,27.81
2022-08-25T07:21:41.770Z,27.82
2022-08-25T07:22:41.782Z,27.77
2022-08-25T07:23:41.840Z,27.74
2022-08-25T07:24:41.758Z,27.70
2022-08-25T07:25:41.792Z,27.69
2022-08-25T07:26:41.764Z,27.66
2022-08-25T07:27:42.284Z,27.36
2022-08-25T07:28:47.421Z,27.27
2022-08-25T07:29:42.850Z,26.89
2022-08-25T07:30:41.723Z,26.73
2022-08-25T07:31:41.871Z,26.82
2022-08-25T07:33:42.684Z,26.82
2022-08-25T07:34:41.681Z,26.81
2022-08-25T07:35:43.806Z,26.73
2022-08-25T07:36:41.630Z,26.69
2022-08-25T07:37:49.831Z,26.60
2022-08-25T07:38:42.652Z,26.48
2022-08-25T07:39:41.589Z,26.36
2022-08-25T07:40:42.958Z,26.17
2022-08-25T07:41:41.588Z,26.07
2022-08-25T07:42:41.549Z,26.01
2022-08-25T07:43:41.504Z,26.15
2022-08-25T07:44:41.536Z,26.15
2022-08-25T07:45:49.214Z,26.26
2022-08-25T07:46:42.651Z,26.35
2022-08-25T07:47:41.461Z,26.52
2022-08-25T07:48:41.476Z,26.63
2022-08-25T07:49:41.471Z,26.72
2022-08-25T07:50:41.415Z,26.72
2022-08-25T07:52:04.185Z,26.88
2022-08-25T07:52:42.405Z,26.84
2022-08-25T07:53:41.382Z,26.85
2022-08-25T07:54:41.403Z,26.91
2022-08-25T07:55:41.379Z,26.80
2022-08-25T07:56:41.354Z,26.62
2022-08-25T07:57:41.340Z,26.67
2022-08-25T07:58:41.331Z,26.66
2022-08-25T07:59:41.344Z,26.77
2022-08-25T08:00:42.279Z,26.69
2022-08-25T08:01:41.372Z,26.70
2022-08-25T08:02:41.481Z,26.77
2022-08-25T08:03:50.918Z,26.85
2022-08-25T08:04:42.270Z,26.75
2022-08-25T08:05:41.271Z,26.82
2022-08-25T08:06:41.281Z,26.82
2022-08-25T08:07:43.411Z,26.99
2022-08-25T08:08:41.224Z,26.70
2022-08-25T08:09:41.239Z,26.67
2022-08-25T08:11:02.761Z,26.67
2022-08-25T08:11:53.672Z,26.67
2022-08-25T08:12:42.194Z,26.70
2022-08-25T08:13:41.593Z,26.69
2022-08-25T08:14:45.085Z,26.82
2022-08-25T08:15:42.204Z,26.92
2022-08-25T08:16:41.157Z,26.97
2022-08-25T08:17:41.130Z,27.09
2022-08-25T08:18:41.130Z,27.24
2022-08-25T08:19:44.860Z,27.29
2022-08-25T08:20:43.198Z,27.34
2022-08-25T08:21:41.108Z,27.41
2022-08-25T08:22:41.075Z,27.46
2022-08-25T08:23:41.087Z,27.40
2022-08-25T08:24:44.684Z,27.18
2022-08-25T08:25:42.086Z,27.10
2022-08-25T08:26:57.595Z,27.12
2022-08-25T08:27:42.014Z,27.13
2022-08-25T08:28:41.021Z,27.31
2022-08-25T08:29:41.008Z,27.36
2022-08-25T08:30:40.985Z,27.37
2022-08-25T08:31:48.423Z,27.29
2022-08-25T08:33:06.290Z,27.34
2022-08-25T08:33:41.980Z,27.29
2022-08-25T08:34:40.946Z,27.36
2022-08-25T08:35:41.127Z,27.32
2022-08-25T08:36:40.924Z,27.40
2022-08-25T08:37:40.952Z,27.44
2022-08-25T08:38:40.902Z,27.55
2022-08-25T08:39:40.905Z,27.60
2022-08-25T08:40:40.911Z,27.54
2022-08-25T08:42:09.626Z,27.62
2022-08-25T08:42:41.892Z,27.54
2022-08-25T08:43:40.858Z,27.46
2022-08-25T08:44:40.896Z,27.32
2022-08-25T08:45:44.107Z,27.25
2022-08-25T08:46:40.942Z,27.19
2022-08-25T08:47:40.811Z,27.28
2022-08-25T08:48:40.805Z,27.32
2022-08-25T08:49:40.825Z,27.34
2022-08-25T08:50:40.778Z,27.46
2022-08-25T08:51:40.783Z,27.43
2022-08-25T08:52:40.754Z,27.47
2022-08-25T08:53:40.793Z,27.36
2022-08-25T08:54:41.168Z,27.31
2022-08-25T08:55:40.736Z,27.22
2022-08-25T08:56:45.303Z,27.12
2022-08-25T08:57:41.781Z,27.02
2022-08-25T08:58:40.723Z,26.94
2022-08-25T08:59:40.698Z,26.80
2022-08-25T09:00:40.682Z,26.52
2022-08-25T09:01:40.718Z,26.48
2022-08-25T09:02:52.022Z,26.35
2022-08-25T09:03:41.689Z,26.33
2022-08-25T09:04:40.646Z,26.43
2022-08-25T09:05:44.947Z,26.40
2022-08-25T09:11:18.967Z,25.92
2022-08-25T09:12:26.066Z,26.09
2022-08-25T09:13:18.368Z,26.13
2022-08-25T09:14:18.408Z,26.29
2022-08-25T09:15:18.325Z,26.44
2022-08-25T09:16:18.321Z,26.58
2022-08-25T09:17:19.296Z,26.63
2022-08-25T09:18:18.288Z,26.67
2022-08-25T09:19:23.522Z,26.82
2022-08-25T09:20:19.472Z,26.85
2022-08-25T09:21:18.251Z,27.10
2022-08-25T09:22:33.554Z,27.21
2022-08-25T09:23:20.285Z,27.27
2022-08-25T09:24:18.234Z,27.27
2022-08-25T09:25:29.542Z,27.31
2022-08-25T09:26:19.187Z,27.19
2022-08-25T09:27:25.850Z,27.03
2022-08-25T09:28:18.191Z,26.97
2022-08-25T09:29:18.158Z,26.92
2022-08-25T09:30:18.158Z,26.84
2022-08-25T09:31:18.262Z,26.77
2022-08-25T09:32:22.535Z,26.73
2022-08-25T09:33:20.994Z,26.77
2022-08-25T09:34:18.101Z,26.80
2022-08-25T09:35:18.091Z,26.85
2022-08-25T09:36:18.078Z,26.84
2022-08-25T09:37:18.089Z,26.85
2022-08-25T09:38:18.113Z,26.75
2022-08-25T09:39:18.114Z,26.77
2022-08-25T09:40:18.219Z,26.97
2022-08-25T09:41:18.218Z,27.04
2022-08-25T09:42:21.980Z,27.27
2022-08-25T09:43:19.021Z,27.25
2022-08-25T09:44:18.012Z,27.18
2022-08-25T09:45:17.984Z,27.14
2022-08-25T09:46:18.164Z,27.13
2022-08-25T09:47:18.106Z,27.00
2022-08-25T09:48:18.034Z,27.12
2022-08-25T09:49:17.943Z,27.10
2022-08-25T09:50:18.571Z,27.14
2022-08-25T09:51:17.940Z,27.00
2022-08-25T09:52:17.931Z,27.13
2022-08-25T09:53:18.924Z,27.25
2022-08-25T09:54:17.892Z,27.40
2022-08-25T09:55:17.881Z,27.34
2022-08-25T09:56:17.877Z,27.34
2022-08-25T09:57:17.894Z,27.34
2022-08-25T09:58:17.857Z,27.37
2022-08-25T09:59:17.839Z,27.41
2022-08-25T10:00:17.827Z,27.40
2022-08-25T10:01:17.871Z,27.39
2022-08-25T10:02:17.830Z,27.41
2022-08-25T10:03:17.820Z,27.43
2022-08-25T10:04:20.862Z,27.41
2022-08-25T10:05:17.812Z,27.46
2022-08-25T10:06:17.768Z,27.55
2022-08-25T10:07:17.776Z,27.69
2022-08-25T10:08:21.299Z,27.84
2022-08-25T10:09:18.747Z,27.75
2022-08-25T10:10:17.722Z,27.67
2022-08-25T10:11:17.725Z,27.78
2022-08-25T10:12:17.719Z,27.78
2022-08-25T10:13:17.688Z,27.92
2022-08-25T10:14:18.674Z,27.93
2022-08-25T10:15:30.113Z,27.96
2022-08-25T10:16:24.309Z,28.11
2022-08-25T10:17:18.676Z,28.12
2022-08-25T10:18:17.638Z,28.25
2022-08-25T10:19:17.623Z,28.31
2022-08-25T10:20:17.630Z,28.40
2022-08-25T10:21:17.611Z,28.41
2022-08-25T10:22:17.589Z,28.48
2022-08-25T10:23:17.576Z,28.55
2022-08-25T10:24:17.580Z,28.54
2022-08-25T10:25:17.555Z,28.48
2022-08-25T10:26:17.541Z,28.22
2022-08-25T10:27:17.563Z,28.15
2022-08-25T10:28:17.522Z,28.15
2022-08-25T10:29:17.511Z,27.97
2022-08-25T10:30:17.497Z,27.92
2022-08-25T10:31:17.563Z,27.85
2022-08-25T10:32:17.496Z,27.67
2022-08-25T10:33:17.650Z,27.59
2022-08-25T10:34:17.476Z,27.34
2022-08-25T10:35:17.445Z,27.32
2022-08-25T10:36:17.432Z,27.29
2022-08-25T10:37:17.422Z,27.32
2022-08-25T10:38:21.793Z,27.31
2022-08-25T10:39:34.446Z,27.34
2022-08-25T10:40:18.410Z,27.24
2022-08-25T10:41:17.373Z,27.34
2022-08-25T10:42:17.363Z,27.37
2022-08-25T10:43:17.374Z,27.28
2022-08-25T10:44:17.341Z,27.31
2022-08-25T10:45:21.765Z,27.37
2022-08-25T10:46:18.729Z,27.22
2022-08-25T10:47:17.305Z,27.09
2022-08-25T10:48:17.318Z,27.09
2022-08-25T10:49:17.304Z,27.13
2022-08-25T10:50:17.273Z,27.13
2022-08-25T10:51:20.581Z,27.09
2022-08-25T10:52:18.252Z,27.12
2022-08-25T10:53:17.241Z,27.22
2022-08-25T10:54:17.260Z,27.21
2022-08-25T10:55:17.222Z,27.09
2022-08-25T10:56:17.211Z,27.24
2022-08-25T10:57:17.218Z,27.28
2022-08-25T10:58:17.185Z,27.32
2022-08-25T10:59:17.212Z,27.25
2022-08-25T11:00:17.183Z,27.43
2022-08-25T11:01:17.223Z,27.70
2022-08-25T11:02:17.147Z,27.75
2022-08-25T11:03:17.143Z,27.97
2022-08-25T11:04:17.117Z,28.18
2022-08-25T11:05:17.125Z,28.24
2022-08-25T11:06:18.097Z,28.46
2022-08-25T11:07:17.102Z,28.52
2022-08-25T11:08:17.078Z,28.54
2022-08-25T11:09:17.082Z,28.36
2022-08-25T11:10:17.174Z,28.17
2022-08-25T11:11:17.073Z,28.17
2022-08-25T11:12:17.078Z,27.90
2022-08-25T11:13:17.046Z,27.84
2022-08-25T11:14:17.005Z,27.84
2022-08-25T11:15:17.028Z,27.78
2022-08-25T11:16:19.225Z,27.88
2022-08-25T11:17:17.095Z,28.09
2022-08-25T11:18:16.979Z,28.30
2022-08-25T11:19:16.949Z,28.40
2022-08-25T11:20:19.451Z,28.39
2022-08-25T11:21:17.944Z,28.40
2022-08-25T11:22:19.279Z,28.46
2022-08-25T11:23:16.911Z,28.55
2022-08-25T11:24:16.915Z,28.73
2022-08-25T11:25:18.378Z,28.73
2022-08-25T11:26:16.871Z,28.77
2022-08-25T11:27:17.433Z,28.86
2022-08-25T11:28:16.858Z,29.06
2022-08-25T11:29:16.840Z,29.00
2022-08-25T11:30:16.826Z,29.06
2022-08-25T11:31:16.898Z,29.09
2022-08-25T11:32:16.805Z,28.96
2022-08-25T11:33:16.810Z,28.89
2022-08-25T11:34:19.576Z,28.77
2022-08-25T11:35:16.767Z,28.62
2022-08-25T11:36:16.759Z,28.40
2022-08-25T11:37:16.776Z,28.34
2022-08-25T11:38:16.736Z,28.19
2022-08-25T11:39:16.753Z,28.22
2022-08-25T11:40:16.795Z,28.25
2022-08-25T11:41:16.704Z,28.40
2022-08-25T11:42:16.695Z,28.58
2022-08-25T11:43:16.684Z,28.48
2022-08-25T11:44:16.691Z,28.40
2022-08-25T11:45:16.675Z,28.33
2022-08-25T11:46:16.787Z,28.46
2022-08-25T11:47:21.146Z,28.43
2022-08-25T11:48:17.622Z,28.25
2022-08-25T11:49:16.638Z,28.31
2022-08-25T11:50:16.603Z,28.22
2022-08-25T11:51:16.623Z,28.17
2022-08-25T11:52:16.582Z,28.15
2022-08-25T11:53:16.569Z,28.11
2022-08-25T11:54:16.567Z,28.06
2022-08-25T11:55:16.550Z,28.07
2022-08-25T11:56:16.555Z,27.93
2022-08-25T11:57:16.539Z,27.88
2022-08-25T11:58:16.897Z,27.90
2022-08-25T11:59:16.500Z,27.99
2022-08-25T12:00:16.491Z,28.03
2022-08-25T12:01:16.496Z,28.11
2022-08-25T12:02:16.466Z,28.18
2022-08-25T12:03:16.459Z,28.33
2022-08-25T12:04:16.579Z,28.49
2022-08-25T12:05:16.646Z,28.58
2022-08-25T12:06:16.429Z,28.64
2022-08-25T12:07:16.411Z,28.74
2022-08-25T12:08:16.401Z,28.85
2022-08-25T12:09:16.431Z,28.90
2022-08-25T12:10:16.394Z,28.95
2022-08-25T12:11:16.363Z,29.08
2022-08-25T12:12:16.357Z,29.06
2022-08-25T12:13:16.367Z,28.96
2022-08-25T12:14:16.335Z,28.88
2022-08-25T12:15:16.331Z,28.67
2022-08-25T12:16:16.343Z,28.56
2022-08-25T12:17:16.297Z,28.48
2022-08-25T12:18:16.304Z,28.58
2022-08-25T12:19:16.274Z,28.71
2022-08-25T12:20:16.291Z,28.76
2022-08-25T12:21:16.283Z,28.90
2022-08-25T12:22:16.245Z,29.04
2022-08-25T12:23:16.252Z,29.15
2022-08-25T12:24:16.224Z,29.06
2022-08-25T12:25:16.205Z,29.00
2022-08-25T12:26:16.219Z,28.92
2022-08-25T12:27:16.222Z,29.11
2022-08-25T12:28:16.197Z,29.33
2022-08-25T12:29:16.172Z,29.37
2022-08-25T12:30:16.202Z,29.30
2022-08-25T12:31:16.238Z,29.37
2022-08-25T12:32:16.153Z,29.52
2022-08-25T12:33:16.156Z,29.57
2022-08-25T12:34:16.111Z,29.70
2022-08-25T12:35:16.101Z,29.82
2022-08-25T12:36:16.090Z,29.82
2022-08-25T12:37:16.095Z,29.89
2022-08-25T12:38:16.101Z,30.08
2022-08-25T12:39:16.064Z,30.24
2022-08-25T12:40:16.077Z,30.31
2022-08-25T12:41:16.036Z,30.35
2022-08-25T12:42:16.030Z,30.49
2022-08-25T12:43:16.036Z,30.64
2022-08-25T12:44:16.020Z,30.72
2022-08-25T12:45:15.995Z,30.65
2022-08-25T12:46:16.023Z,30.76
2022-08-25T12:47:15.990Z,30.43
2022-08-25T12:48:15.963Z,30.32
2022-08-25T12:49:15.969Z,30.17
2022-08-25T12:50:16.027Z,29.90
2022-08-25T12:51:15.930Z,29.85
2022-08-25T12:52:15.926Z,29.65
2022-08-25T12:53:15.911Z,29.55
2022-08-25T12:54:19.205Z,29.34
2022-08-25T12:55:16.885Z,29.45
2022-08-25T12:56:15.893Z,29.39
2022-08-25T12:57:15.886Z,29.43
2022-08-25T12:58:15.855Z,29.39
2022-08-25T12:59:15.865Z,29.61